Murska Sobota, Slovenia
Current Conditions -  °F | °C
As of 10:30 AM on Wednesday 22 Oct 2014 (Local Time) from LJMB Reporting Station
Broken Clouds Broken Clouds  
Wind Chill: 37°   Ceiling: 10000
Heat Index: 43°   Visibility: 6mi
Dew Point: 39°   Wind: 9mph
Humidity: 87%   Direction: 200°SSW
Pressure: 29.8"   Gusts: NA
Location:  46.66°N, 16.14°E
Report Text: LJMB 220930Z 20008KT 170V230 9999 FEW010 BKN100 06/04 Q1009
Loading
Personal Weather Stations






























Interactive Weather Map
Tropical Storm Tracking
New forecast layout! Learn more

10-Day Weather Forecast

Advertisements
Track Severe Weather on mobile